createdAt,value
2017-01-24T00:00:20.814Z,2.77
2017-01-24T00:00:46.946Z,2.72
2017-01-24T00:01:13.051Z,2.74
2017-01-24T00:01:39.171Z,2.77
2017-01-24T00:02:05.280Z,2.68
2017-01-24T00:02:31.383Z,2.69
2017-01-24T00:02:57.474Z,2.62
2017-01-24T00:03:23.568Z,2.65
2017-01-24T00:03:49.677Z,2.61
2017-01-24T00:04:15.767Z,2.54
2017-01-24T00:04:41.871Z,2.67
2017-01-24T00:05:07.973Z,2.71
2017-01-24T00:05:34.067Z,2.57
2017-01-24T00:06:00.160Z,2.64
2017-01-24T00:06:26.271Z,2.61
2017-01-24T00:06:52.374Z,2.54
2017-01-24T00:07:18.477Z,2.69
2017-01-24T00:07:44.570Z,2.67
2017-01-24T00:08:10.668Z,2.68
2017-01-24T00:08:36.770Z,2.69
2017-01-24T00:09:02.869Z,2.64
2017-01-24T00:09:28.957Z,2.65
2017-01-24T00:09:55.066Z,2.64
2017-01-24T00:10:21.163Z,2.69
2017-01-24T00:10:47.260Z,2.64
2017-01-24T00:11:13.379Z,2.68
2017-01-24T00:11:39.483Z,2.64
2017-01-24T00:12:05.574Z,2.62
2017-01-24T00:12:31.678Z,2.61
2017-01-24T00:12:57.768Z,2.56
2017-01-24T00:13:23.878Z,2.56
2017-01-24T00:13:49.974Z,2.6
2017-01-24T00:14:16.065Z,2.61
2017-01-24T00:14:42.171Z,2.56
2017-01-24T00:15:08.271Z,2.57
2017-01-24T00:15:34.376Z,2.57
2017-01-24T00:16:00.467Z,2.68
2017-01-24T00:16:26.569Z,2.67
2017-01-24T00:16:52.662Z,2.65
2017-01-24T00:17:18.760Z,2.57
2017-01-24T00:17:44.871Z,2.62
2017-01-24T00:18:10.960Z,2.72
2017-01-24T00:18:37.072Z,2.74
2017-01-24T00:19:03.163Z,2.8
2017-01-24T00:19:29.260Z,2.72
2017-01-24T00:19:55.375Z,2.72
2017-01-24T00:20:21.465Z,2.82
2017-01-24T00:20:47.561Z,2.8
2017-01-24T00:21:13.667Z,2.71
2017-01-24T00:21:39.762Z,2.8
2017-01-24T00:22:05.862Z,2.77
2017-01-24T00:22:31.971Z,2.8
2017-01-24T00:22:58.060Z,2.79
2017-01-24T00:23:24.149Z,2.87
2017-01-24T00:23:50.257Z,2.8
2017-01-24T00:24:16.354Z,2.85
2017-01-24T00:24:42.469Z,2.86
2017-01-24T00:25:08.560Z,2.86
2017-01-24T00:25:34.660Z,2.86
2017-01-24T00:26:00.761Z,2.87
2017-01-24T00:26:26.856Z,2.95
2017-01-24T00:26:52.946Z,2.93
2017-01-24T00:27:19.060Z,2.92
2017-01-24T00:27:45.162Z,2.97
2017-01-24T00:28:11.250Z,3.01
2017-01-24T00:28:37.358Z,2.95
2017-01-24T00:29:03.454Z,2.98
2017-01-24T00:29:29.555Z,3.01
2017-01-24T00:29:55.651Z,3
2017-01-24T00:30:21.738Z,3
2017-01-24T00:30:47.853Z,3.05
2017-01-24T00:31:13.976Z,3.01
2017-01-24T00:31:40.072Z,3.07
2017-01-24T00:32:06.177Z,3.07
2017-01-24T00:32:32.282Z,3.07
2017-01-24T00:32:58.597Z,3.03
2017-01-24T00:33:24.746Z,3.03
2017-01-24T00:33:50.835Z,3.08
2017-01-24T00:34:16.925Z,3.05
2017-01-24T00:34:43.042Z,3.07
2017-01-24T00:35:09.138Z,3.08
2017-01-24T00:35:35.244Z,3.13
2017-01-24T00:36:01.357Z,3.03
2017-01-24T00:36:27.446Z,2.95
2017-01-24T00:36:53.549Z,3.07
2017-01-24T00:37:19.695Z,3.05
2017-01-24T00:37:45.803Z,3.08
2017-01-24T00:38:11.904Z,2.95
2017-01-24T00:38:38.020Z,2.85
2017-01-24T00:39:04.113Z,2.97
2017-01-24T00:39:30.216Z,2.87
2017-01-24T00:39:56.332Z,2.87
2017-01-24T00:40:22.439Z,2.87
2017-01-24T00:40:48.577Z,2.95
2017-01-24T00:41:14.662Z,2.97
2017-01-24T00:41:40.792Z,2.9
2017-01-24T00:42:06.937Z,2.95
2017-01-24T00:42:33.027Z,2.98
2017-01-24T00:42:59.137Z,2.98
2017-01-24T00:43:25.247Z,3.08
2017-01-24T00:43:51.339Z,2.95
2017-01-24T00:44:17.430Z,2.97
2017-01-24T00:44:43.535Z,3.01
2017-01-24T00:45:09.632Z,2.83
2017-01-24T00:45:35.725Z,2.87
2017-01-24T00:46:01.835Z,2.97
2017-01-24T00:46:27.937Z,2.95
2017-01-24T00:46:54.023Z,2.98
2017-01-24T00:47:20.125Z,3.03
2017-01-24T00:47:46.231Z,2.97
2017-01-24T00:48:12.321Z,2.93
2017-01-24T00:48:38.426Z,2.97
2017-01-24T00:49:04.530Z,2.97
2017-01-24T00:49:30.624Z,3
2017-01-24T00:49:56.723Z,2.9
2017-01-24T00:50:22.831Z,2.89
2017-01-24T00:50:48.928Z,2.85
2017-01-24T00:51:15.020Z,2.82
2017-01-24T00:51:41.119Z,2.85
2017-01-24T00:52:07.217Z,2.85
2017-01-24T00:52:33.331Z,2.89
2017-01-24T00:52:59.419Z,2.89
2017-01-24T00:53:25.521Z,2.97
2017-01-24T00:53:51.627Z,2.86
2017-01-24T00:54:17.720Z,2.82
2017-01-24T00:54:43.815Z,2.86
2017-01-24T00:55:09.933Z,2.75
2017-01-24T00:55:36.023Z,2.85
2017-01-24T00:56:02.112Z,2.74
2017-01-24T00:56:28.219Z,2.82
2017-01-24T00:56:54.323Z,2.82
2017-01-24T00:57:20.431Z,2.87
2017-01-24T00:57:46.522Z,2.83
2017-01-24T00:58:12.605Z,2.71
2017-01-24T00:58:38.721Z,2.79
2017-01-24T00:59:04.817Z,2.89
2017-01-24T00:59:30.910Z,2.77
2017-01-24T00:59:57.018Z,2.75
2017-01-24T01:00:23.144Z,2.67
2017-01-24T01:00:49.235Z,2.71
2017-01-24T01:01:15.332Z,2.71
2017-01-24T01:01:41.440Z,2.71
2017-01-24T01:02:07.531Z,2.71
2017-01-24T01:02:33.629Z,2.79
2017-01-24T01:02:59.720Z,2.72
2017-01-24T01:03:25.831Z,2.75
2017-01-24T01:03:51.935Z,2.69
2017-01-24T01:04:18.047Z,2.83
2017-01-24T01:04:44.149Z,2.8
2017-01-24T01:05:10.256Z,2.85
2017-01-24T01:05:36.346Z,2.87
2017-01-24T01:06:02.446Z,2.97
2017-01-24T01:06:28.552Z,2.97
2017-01-24T01:06:54.640Z,2.98
2017-01-24T01:07:20.734Z,2.85
2017-01-24T01:07:46.839Z,2.89
2017-01-24T01:08:12.937Z,2.9
2017-01-24T01:08:39.048Z,2.93
2017-01-24T01:09:05.133Z,2.87
2017-01-24T01:09:31.233Z,2.83
2017-01-24T01:09:57.346Z,2.85
2017-01-24T01:10:23.437Z,2.97
2017-01-24T01:10:49.532Z,2.95
2017-01-24T01:11:15.636Z,2.82
2017-01-24T01:11:41.730Z,2.86
2017-01-24T01:12:07.816Z,2.9
2017-01-24T01:12:33.928Z,2.89
2017-01-24T01:13:00.024Z,2.9
2017-01-24T01:13:26.117Z,2.87
2017-01-24T01:13:52.224Z,2.93
2017-01-24T01:14:18.310Z,2.86
2017-01-24T01:14:44.423Z,2.86
2017-01-24T01:15:10.521Z,2.87
2017-01-24T01:15:36.611Z,2.87
2017-01-24T01:16:02.718Z,2.85
2017-01-24T01:16:28.812Z,2.83
2017-01-24T01:16:54.905Z,2.75
2017-01-24T01:17:21.012Z,2.67
2017-01-24T01:17:47.120Z,2.75
2017-01-24T01:18:13.204Z,2.68
2017-01-24T01:18:39.309Z,2.82
2017-01-24T01:19:05.414Z,2.79
2017-01-24T01:19:31.510Z,2.77
2017-01-24T01:19:57.606Z,2.83
2017-01-24T01:20:23.699Z,2.75
2017-01-24T01:20:49.804Z,2.68
2017-01-24T01:21:15.903Z,2.75
2017-01-24T01:21:41.995Z,2.75
2017-01-24T01:22:08.096Z,2.62
2017-01-24T01:22:34.206Z,2.67
2017-01-24T01:23:00.288Z,2.65
2017-01-24T01:23:26.392Z,2.65
2017-01-24T01:23:52.493Z,2.71
2017-01-24T01:24:18.589Z,2.64
2017-01-24T01:24:44.692Z,2.69
2017-01-24T01:25:10.781Z,2.62
2017-01-24T01:25:36.885Z,2.64
2017-01-24T01:26:03.023Z,2.74
2017-01-24T01:26:29.081Z,2.65
2017-01-24T01:26:55.182Z,2.62
2017-01-24T01:27:21.291Z,2.65
2017-01-24T01:27:47.383Z,2.67
2017-01-24T01:28:13.482Z,2.72
2017-01-24T01:28:39.593Z,2.67
2017-01-24T01:29:05.685Z,2.69
2017-01-24T01:29:31.776Z,2.62
2017-01-24T01:29:57.878Z,2.68
2017-01-24T01:30:23.978Z,2.65
2017-01-24T01:30:50.069Z,2.71
2017-01-24T01:31:16.175Z,2.68
2017-01-24T01:31:42.282Z,2.6
2017-01-24T01:32:08.372Z,2.62
2017-01-24T01:32:34.475Z,2.68
2017-01-24T01:33:00.584Z,2.69
2017-01-24T01:33:26.663Z,2.68
2017-01-24T01:33:52.764Z,2.74
2017-01-24T01:34:18.879Z,2.68
2017-01-24T01:34:44.967Z,2.65
2017-01-24T01:35:11.067Z,2.62
2017-01-24T01:35:37.172Z,2.71
2017-01-24T01:36:03.265Z,2.85
2017-01-24T01:36:29.373Z,2.72
2017-01-24T01:36:55.465Z,2.75
2017-01-24T01:37:21.559Z,2.86
2017-01-24T01:37:47.665Z,2.85
2017-01-24T01:38:13.751Z,2.86
2017-01-24T01:38:39.848Z,2.77
2017-01-24T01:39:05.956Z,2.85
2017-01-24T01:39:32.052Z,2.71
2017-01-24T01:39:58.136Z,2.64
2017-01-24T01:40:24.250Z,2.72
2017-01-24T01:40:50.343Z,2.62
2017-01-24T01:41:16.463Z,2.62
2017-01-24T01:41:42.570Z,2.65
2017-01-24T01:42:08.658Z,2.62
2017-01-24T01:42:34.771Z,2.72
2017-01-24T01:43:00.858Z,2.74
2017-01-24T01:43:26.949Z,2.75
2017-01-24T01:43:53.060Z,2.75
2017-01-24T01:44:19.162Z,2.77
2017-01-24T01:44:45.249Z,2.77
2017-01-24T01:45:11.361Z,2.72
2017-01-24T01:45:37.464Z,2.72
2017-01-24T01:46:03.557Z,2.62
2017-01-24T01:46:29.656Z,2.57
2017-01-24T01:46:55.760Z,2.62
2017-01-24T01:47:21.858Z,2.67
2017-01-24T01:47:47.957Z,2.65
2017-01-24T01:48:14.043Z,2.77
2017-01-24T01:48:40.148Z,2.69
2017-01-24T01:49:06.249Z,2.79
2017-01-24T01:49:32.336Z,2.82
2017-01-24T01:49:58.445Z,2.79
2017-01-24T01:50:24.582Z,2.85
2017-01-24T01:50:50.664Z,2.85
2017-01-24T01:51:16.766Z,2.87
2017-01-24T01:51:42.873Z,2.89
2017-01-24T01:52:08.964Z,2.82
2017-01-24T01:52:35.066Z,2.85
2017-01-24T01:53:01.162Z,2.79
2017-01-24T01:53:27.263Z,2.79
2017-01-24T01:53:53.366Z,2.85
2017-01-24T01:54:19.454Z,2.77
2017-01-24T01:54:45.555Z,2.86
2017-01-24T01:55:11.666Z,2.89
2017-01-24T01:55:37.754Z,2.89
2017-01-24T01:56:03.848Z,2.79
2017-01-24T01:56:29.954Z,2.8
2017-01-24T01:56:56.046Z,2.75
2017-01-24T01:57:22.133Z,2.67
2017-01-24T01:57:48.244Z,2.71
2017-01-24T01:58:14.341Z,2.67
2017-01-24T01:58:40.444Z,2.68
2017-01-24T01:59:06.535Z,2.71
2017-01-24T01:59:32.638Z,2.82
2017-01-24T01:59:58.738Z,2.72
2017-01-24T02:00:24.829Z,2.69
2017-01-24T02:00:50.915Z,2.62
2017-01-24T02:01:17.031Z,2.71
2017-01-24T02:01:43.126Z,2.72
2017-01-24T02:02:09.219Z,2.77
2017-01-24T02:02:35.331Z,2.74
2017-01-24T02:03:01.437Z,2.82
2017-01-24T02:03:27.524Z,2.79
2017-01-24T02:03:53.629Z,2.85
2017-01-24T02:04:19.723Z,2.85
2017-01-24T02:04:45.857Z,2.83
2017-01-24T02:05:11.954Z,2.86
2017-01-24T02:05:38.039Z,2.86
2017-01-24T02:06:04.151Z,2.87
2017-01-24T02:06:30.255Z,2.87
2017-01-24T02:06:56.343Z,2.72
2017-01-24T02:07:22.442Z,2.83
2017-01-24T02:07:48.546Z,2.75
2017-01-24T02:08:14.630Z,2.79
2017-01-24T02:08:40.729Z,2.77
2017-01-24T02:09:06.836Z,2.8
2017-01-24T02:09:32.921Z,2.8
2017-01-24T02:09:59.025Z,2.95
2017-01-24T02:10:25.119Z,2.87
2017-01-24T02:10:51.220Z,2.83
2017-01-24T02:11:17.328Z,2.85
2017-01-24T02:11:43.410Z,2.71
2017-01-24T02:12:09.509Z,2.69
2017-01-24T02:12:35.610Z,2.72
2017-01-24T02:13:01.702Z,2.71
2017-01-24T02:13:27.801Z,2.75
2017-01-24T02:13:53.911Z,2.71
2017-01-24T02:14:20.009Z,2.79
2017-01-24T02:14:46.089Z,2.72
2017-01-24T02:15:12.197Z,2.77
2017-01-24T02:15:38.295Z,2.72
2017-01-24T02:16:04.388Z,2.72
2017-01-24T02:16:30.491Z,2.79
2017-01-24T02:16:56.596Z,2.77
2017-01-24T02:17:22.684Z,2.74
2017-01-24T02:17:48.810Z,2.83
2017-01-24T02:18:14.918Z,2.82
2017-01-24T02:18:41.008Z,2.74
2017-01-24T02:19:07.108Z,2.77
2017-01-24T02:19:33.210Z,2.77
2017-01-24T02:19:59.307Z,2.83
2017-01-24T02:20:25.403Z,2.9
2017-01-24T02:20:51.504Z,2.9
2017-01-24T02:21:17.607Z,2.89
2017-01-24T02:21:43.712Z,2.85
2017-01-24T02:22:09.802Z,2.72
2017-01-24T02:22:35.899Z,2.9
2017-01-24T02:23:02.013Z,2.74
2017-01-24T02:23:28.103Z,2.89
2017-01-24T02:23:54.205Z,2.69
2017-01-24T02:24:20.302Z,2.77
2017-01-24T02:24:46.393Z,2.72
2017-01-24T02:25:12.487Z,2.72
2017-01-24T02:25:38.599Z,2.72
2017-01-24T02:26:04.698Z,2.8
2017-01-24T02:26:30.802Z,2.82
2017-01-24T02:26:56.894Z,2.77
2017-01-24T02:27:22.991Z,2.75
2017-01-24T02:27:49.100Z,2.71
2017-01-24T02:28:15.187Z,2.72
2017-01-24T02:28:41.276Z,2.67
2017-01-24T02:29:07.387Z,2.69
2017-01-24T02:29:33.486Z,2.74
2017-01-24T02:29:59.580Z,2.72
2017-01-24T02:30:25.681Z,2.85
2017-01-24T02:30:51.783Z,2.85
2017-01-24T02:31:17.873Z,2.89
2017-01-24T02:31:43.980Z,2.8
2017-01-24T02:32:10.073Z,2.83
2017-01-24T02:32:36.178Z,2.85
2017-01-24T02:33:02.274Z,2.85
2017-01-24T02:33:28.360Z,2.87
2017-01-24T02:33:54.468Z,2.89
2017-01-24T02:34:20.570Z,2.87
2017-01-24T02:34:46.657Z,2.86
2017-01-24T02:35:12.760Z,2.87
2017-01-24T02:35:38.866Z,2.83
2017-01-24T02:36:04.951Z,2.87
2017-01-24T02:36:31.051Z,2.89
2017-01-24T02:36:57.154Z,2.9
2017-01-24T02:37:23.245Z,2.82
2017-01-24T02:37:49.344Z,2.98
2017-01-24T02:38:15.444Z,2.87
2017-01-24T02:38:41.537Z,3.01
2017-01-24T02:39:07.626Z,2.87
2017-01-24T02:39:33.742Z,2.85
2017-01-24T02:39:59.835Z,2.9
2017-01-24T02:40:25.924Z,2.93
2017-01-24T02:40:52.030Z,2.87
2017-01-24T02:41:18.129Z,2.85
2017-01-24T02:41:44.218Z,2.93
2017-01-24T02:42:10.322Z,2.95
2017-01-24T02:42:36.434Z,2.98
2017-01-24T02:43:02.523Z,2.98
2017-01-24T02:43:28.621Z,2.92
2017-01-24T02:43:54.716Z,2.9
2017-01-24T02:44:20.819Z,2.93
2017-01-24T02:44:46.916Z,3
2017-01-24T02:45:13.001Z,2.98
2017-01-24T02:45:39.111Z,2.8
2017-01-24T02:46:05.212Z,2.85
2017-01-24T02:46:31.295Z,2.86
2017-01-24T02:46:57.417Z,2.75
2017-01-24T02:47:23.523Z,2.77
2017-01-24T02:47:49.609Z,2.71
2017-01-24T02:48:15.703Z,2.8
2017-01-24T02:48:41.801Z,2.86
2017-01-24T02:49:07.907Z,2.86
2017-01-24T02:49:34.009Z,2.9
2017-01-24T02:50:00.099Z,2.85
2017-01-24T02:50:26.193Z,2.85
2017-01-24T02:50:52.303Z,2.89
2017-01-24T02:51:18.389Z,2.86
2017-01-24T02:51:44.490Z,2.89
2017-01-24T02:52:10.594Z,2.9
2017-01-24T02:52:36.691Z,2.86
2017-01-24T02:53:02.783Z,2.97
2017-01-24T02:53:28.892Z,2.9
2017-01-24T02:53:54.989Z,2.83
2017-01-24T02:54:21.086Z,2.87
2017-01-24T02:54:47.177Z,2.93
2017-01-24T02:55:13.273Z,2.82
2017-01-24T02:55:39.377Z,2.97
2017-01-24T02:56:05.472Z,2.95
2017-01-24T02:56:31.553Z,3.08
2017-01-24T02:56:57.667Z,3.01
2017-01-24T02:57:23.766Z,3.05
2017-01-24T02:57:49.859Z,3.07
2017-01-24T02:58:15.962Z,2.98
2017-01-24T02:58:42.087Z,3
2017-01-24T02:59:08.149Z,3.04
2017-01-24T02:59:34.247Z,3.03
2017-01-24T03:00:00.352Z,2.98
2017-01-24T03:00:26.444Z,2.83
2017-01-24T03:00:52.541Z,2.93
2017-01-24T03:01:18.649Z,2.93
2017-01-24T03:01:44.737Z,2.85
2017-01-24T03:02:10.833Z,2.83
2017-01-24T03:02:36.935Z,2.93
2017-01-24T03:03:03.030Z,2.95
2017-01-24T03:03:29.121Z,2.85
2017-01-24T03:03:55.233Z,2.86
2017-01-24T03:04:21.327Z,2.87
2017-01-24T03:04:47.425Z,2.93
2017-01-24T03:05:13.528Z,2.86
2017-01-24T03:05:39.624Z,2.8
2017-01-24T03:06:05.728Z,2.69
2017-01-24T03:06:31.825Z,2.69
2017-01-24T03:06:57.909Z,2.67
2017-01-24T03:07:24.026Z,2.71
2017-01-24T03:07:50.123Z,2.75
2017-01-24T03:08:16.217Z,2.61
2017-01-24T03:08:42.324Z,2.69
2017-01-24T03:09:08.420Z,2.69
2017-01-24T03:09:34.516Z,2.67
2017-01-24T03:10:00.618Z,2.74
2017-01-24T03:10:26.726Z,2.67
2017-01-24T03:10:52.821Z,2.61
2017-01-24T03:11:18.912Z,2.68
2017-01-24T03:11:45.008Z,2.69
2017-01-24T03:12:11.113Z,2.6
2017-01-24T03:12:37.218Z,2.64
2017-01-24T03:13:03.302Z,2.71
2017-01-24T03:13:29.404Z,2.75
2017-01-24T03:13:55.509Z,2.79
2017-01-24T03:14:21.597Z,2.75
2017-01-24T03:14:47.700Z,2.77
2017-01-24T03:15:13.810Z,2.65
2017-01-24T03:15:39.905Z,2.69
2017-01-24T03:16:05.999Z,2.72
2017-01-24T03:16:32.102Z,2.72
2017-01-24T03:16:58.207Z,2.68
2017-01-24T03:17:24.311Z,2.65
2017-01-24T03:17:50.399Z,2.69
2017-01-24T03:18:16.498Z,2.64
2017-01-24T03:18:42.609Z,2.65
2017-01-24T03:19:08.703Z,2.72
2017-01-24T03:19:34.796Z,2.6
2017-01-24T03:20:00.904Z,2.71
2017-01-24T03:20:27.001Z,2.77
2017-01-24T03:20:53.095Z,2.77
2017-01-24T03:21:19.206Z,2.83
2017-01-24T03:21:45.301Z,2.82
2017-01-24T03:22:11.407Z,2.69
2017-01-24T03:22:37.495Z,2.77
2017-01-24T03:23:03.596Z,2.62
2017-01-24T03:23:29.706Z,2.62
2017-01-24T03:23:55.802Z,2.68
2017-01-24T03:24:21.896Z,2.69
2017-01-24T03:24:48.006Z,2.65
2017-01-24T03:25:14.103Z,2.69
2017-01-24T03:25:40.194Z,2.67
2017-01-24T03:26:06.301Z,2.62
2017-01-24T03:26:32.399Z,2.71
2017-01-24T03:26:58.497Z,2.71
2017-01-24T03:27:24.600Z,2.72
2017-01-24T03:27:50.687Z,2.72
2017-01-24T03:28:16.801Z,2.79
2017-01-24T03:28:42.900Z,2.74
2017-01-24T03:29:08.991Z,2.69
2017-01-24T03:29:35.098Z,2.72
2017-01-24T03:30:01.191Z,2.71
2017-01-24T03:30:27.276Z,2.75
2017-01-24T03:30:53.387Z,2.79
2017-01-24T03:31:19.490Z,2.65
2017-01-24T03:31:45.574Z,2.65
2017-01-24T03:32:11.676Z,2.71
2017-01-24T03:32:37.777Z,2.65
2017-01-24T03:33:03.873Z,2.71
2017-01-24T03:33:29.980Z,2.72
2017-01-24T03:33:56.069Z,2.69
2017-01-24T03:34:22.778Z,2.79
2017-01-24T03:34:48.884Z,2.74
2017-01-24T03:35:14.970Z,2.69
2017-01-24T03:35:41.076Z,2.72
2017-01-24T03:36:07.213Z,2.71
2017-01-24T03:36:33.300Z,2.67
2017-01-24T03:36:59.391Z,2.6
2017-01-24T03:37:25.504Z,2.67
2017-01-24T03:37:51.596Z,2.69
2017-01-24T03:38:17.689Z,2.74
2017-01-24T03:38:43.790Z,2.83
2017-01-24T03:39:09.887Z,2.8
2017-01-24T03:39:35.995Z,2.82
2017-01-24T03:40:02.084Z,2.8
2017-01-24T03:40:28.185Z,2.85
2017-01-24T03:40:54.288Z,2.69
2017-01-24T03:41:20.379Z,2.77
2017-01-24T03:41:46.464Z,2.71
2017-01-24T03:42:12.579Z,2.83
2017-01-24T03:42:38.677Z,2.83
2017-01-24T03:43:04.766Z,2.86
2017-01-24T03:43:30.870Z,2.9
2017-01-24T03:43:56.966Z,2.89
2017-01-24T03:44:23.061Z,2.92
2017-01-24T03:44:49.163Z,2.85
2017-01-24T03:45:15.266Z,2.86
2017-01-24T03:45:41.353Z,2.83
2017-01-24T03:46:07.457Z,2.86
2017-01-24T03:46:33.565Z,2.87
2017-01-24T03:46:59.656Z,2.82
2017-01-24T03:47:25.749Z,2.89
2017-01-24T03:47:51.861Z,2.8
2017-01-24T03:48:17.983Z,2.86
2017-01-24T03:48:44.079Z,2.85
2017-01-24T03:49:10.178Z,2.86
2017-01-24T03:49:36.274Z,2.8
2017-01-24T03:50:02.377Z,2.74
2017-01-24T03:50:28.465Z,2.67
2017-01-24T03:50:54.563Z,2.72
2017-01-24T03:51:20.675Z,2.72
2017-01-24T03:51:46.769Z,2.69
2017-01-24T03:52:12.857Z,2.69
2017-01-24T03:52:38.973Z,2.75
2017-01-24T03:53:05.065Z,2.74
2017-01-24T03:53:31.150Z,2.75
2017-01-24T03:53:57.260Z,2.86
2017-01-24T03:54:23.357Z,2.85
2017-01-24T03:54:49.452Z,2.86
2017-01-24T03:55:15.550Z,2.87
2017-01-24T03:55:41.641Z,2.85
2017-01-24T03:56:07.756Z,2.86
2017-01-24T03:56:33.855Z,2.9
2017-01-24T03:56:59.941Z,2.87
2017-01-24T03:57:26.052Z,2.87
2017-01-24T03:57:52.147Z,2.82
2017-01-24T03:58:18.239Z,2.85
2017-01-24T03:58:44.342Z,2.82
2017-01-24T03:59:10.454Z,2.87
2017-01-24T03:59:36.537Z,2.92
2017-01-24T04:00:02.643Z,2.86
2017-01-24T04:00:28.769Z,2.79
2017-01-24T04:00:54.861Z,2.87
2017-01-24T04:01:20.965Z,2.97
2017-01-24T04:01:47.052Z,2.97
2017-01-24T04:02:13.160Z,2.87
2017-01-24T04:02:39.264Z,2.92
2017-01-24T04:03:05.350Z,2.83
2017-01-24T04:03:31.451Z,2.92
2017-01-24T04:03:57.560Z,2.85
2017-01-24T04:04:23.646Z,2.83
2017-01-24T04:04:49.740Z,2.87
2017-01-24T04:05:15.849Z,2.92
2017-01-24T04:05:41.940Z,2.82
2017-01-24T04:06:08.033Z,2.82
2017-01-24T04:06:34.133Z,2.86
2017-01-24T04:07:00.235Z,2.85
2017-01-24T04:07:26.346Z,2.89
2017-01-24T04:07:52.432Z,2.87
2017-01-24T04:08:18.532Z,2.86
2017-01-24T04:08:44.631Z,2.93
2017-01-24T04:09:10.732Z,2.89
2017-01-24T04:09:36.816Z,2.95
2017-01-24T04:10:02.926Z,2.93
2017-01-24T04:10:29.022Z,3.01
2017-01-24T04:10:55.135Z,3.1
2017-01-24T04:11:21.240Z,2.95
2017-01-24T04:11:47.344Z,2.86
2017-01-24T04:12:13.446Z,2.93
2017-01-24T04:12:39.535Z,2.93
2017-01-24T04:13:05.617Z,2.87
2017-01-24T04:13:31.729Z,2.85
2017-01-24T04:13:57.829Z,2.97
2017-01-24T04:14:23.924Z,2.86
2017-01-24T04:14:50.051Z,2.98
2017-01-24T04:15:16.152Z,2.83
2017-01-24T04:15:42.240Z,2.98
2017-01-24T04:16:08.344Z,2.97
2017-01-24T04:16:34.453Z,3.03
2017-01-24T04:17:00.539Z,2.95
2017-01-24T04:17:26.638Z,3.04
2017-01-24T04:17:52.730Z,2.87
2017-01-24T04:18:18.842Z,2.98
2017-01-24T04:18:44.940Z,3
2017-01-24T04:19:11.031Z,3.03
2017-01-24T04:19:37.136Z,2.85
2017-01-24T04:20:03.239Z,2.86
2017-01-24T04:20:29.328Z,2.9
2017-01-24T04:20:55.428Z,2.85
2017-01-24T04:21:21.536Z,2.95
2017-01-24T04:21:47.621Z,2.87
2017-01-24T04:22:13.712Z,2.87
2017-01-24T04:22:39.821Z,2.77
2017-01-24T04:23:05.947Z,2.9
2017-01-24T04:23:32.052Z,2.87
2017-01-24T04:23:58.136Z,2.93
2017-01-24T04:24:24.231Z,2.85
2017-01-24T04:24:50.343Z,2.92
2017-01-24T04:25:16.430Z,3.01
2017-01-24T04:25:42.534Z,3.03
2017-01-24T04:26:08.636Z,3.03
2017-01-24T04:26:34.724Z,3.05
2017-01-24T04:27:00.815Z,3
2017-01-24T04:27:26.931Z,2.95
2017-01-24T04:27:53.028Z,2.95
2017-01-24T04:28:19.112Z,3.08
2017-01-24T04:28:45.221Z,3
2017-01-24T04:29:11.321Z,3.04
2017-01-24T04:29:37.405Z,3.03
2017-01-24T04:30:03.512Z,3.04
2017-01-24T04:30:29.613Z,3.07
2017-01-24T04:30:55.705Z,3.07
2017-01-24T04:31:21.805Z,3.04
2017-01-24T04:31:47.915Z,3.04
2017-01-24T04:32:14.001Z,3.11
2017-01-24T04:32:40.097Z,3.07
2017-01-24T04:33:06.204Z,3.18
2017-01-24T04:33:32.305Z,3.19
2017-01-24T04:33:58.393Z,3.21
2017-01-24T04:34:24.493Z,3.19
2017-01-24T04:34:50.594Z,3.16
2017-01-24T04:35:16.707Z,3.16
2017-01-24T04:35:42.795Z,3.18
2017-01-24T04:36:08.894Z,3.21
2017-01-24T04:36:34.998Z,3.19
2017-01-24T04:37:01.093Z,3.21
2017-01-24T04:37:27.184Z,3.18
2017-01-24T04:37:53.301Z,3.18
2017-01-24T04:38:19.396Z,3.07
2017-01-24T04:38:45.493Z,3.13
2017-01-24T04:39:11.595Z,3.14
2017-01-24T04:39:37.692Z,3.14
2017-01-24T04:40:03.791Z,3.14
2017-01-24T04:40:29.886Z,3.16
2017-01-24T04:40:55.970Z,3.21
2017-01-24T04:41:22.080Z,3.21
2017-01-24T04:41:48.171Z,3.26
2017-01-24T04:42:14.269Z,3.25
2017-01-24T04:42:40.374Z,3.22
2017-01-24T04:43:06.468Z,3.25
2017-01-24T04:43:32.556Z,3.22
2017-01-24T04:43:58.660Z,3.23
2017-01-24T04:44:24.795Z,3.22
2017-01-24T04:44:50.856Z,3.22
2017-01-24T04:45:16.961Z,3.23
2017-01-24T04:45:43.048Z,3.21
2017-01-24T04:46:09.155Z,3.31
2017-01-24T04:46:35.261Z,3.25
2017-01-24T04:47:01.370Z,3.25
2017-01-24T04:47:27.476Z,3.28
2017-01-24T04:47:53.581Z,3.26
2017-01-24T04:48:19.671Z,3.23
2017-01-24T04:48:45.769Z,3.31
2017-01-24T04:49:11.876Z,3.23
2017-01-24T04:49:37.965Z,3.28
2017-01-24T04:50:04.067Z,3.32
2017-01-24T04:50:30.170Z,3.36
2017-01-24T04:50:56.262Z,3.42
2017-01-24T04:51:22.362Z,3.28
2017-01-24T04:51:48.449Z,3.37
2017-01-24T04:52:14.545Z,3.37
2017-01-24T04:52:40.655Z,3.44
2017-01-24T04:53:06.739Z,3.41
2017-01-24T04:53:32.831Z,3.31
2017-01-24T04:53:58.932Z,3.36
2017-01-24T04:54:25.028Z,3.31
2017-01-24T04:54:51.120Z,3.32
2017-01-24T04:55:17.237Z,3.36
2017-01-24T04:55:43.326Z,3.31
2017-01-24T04:56:09.412Z,3.44
2017-01-24T04:56:35.527Z,3.48
2017-01-24T04:57:01.650Z,3.42
2017-01-24T04:57:27.760Z,3.51
2017-01-24T04:57:53.855Z,3.41
2017-01-24T04:58:19.947Z,3.42
2017-01-24T04:58:46.057Z,3.45
2017-01-24T04:59:12.154Z,3.51
2017-01-24T04:59:38.250Z,3.53
2017-01-24T05:00:04.353Z,3.58
2017-01-24T05:00:30.453Z,3.41
2017-01-24T05:00:56.539Z,3.28
2017-01-24T05:01:22.643Z,3.19
2017-01-24T05:01:48.756Z,3.19
2017-01-24T05:02:14.845Z,3.31
2017-01-24T05:02:40.938Z,3.28
2017-01-24T05:03:07.030Z,3.25
2017-01-24T05:03:33.139Z,3.23
2017-01-24T05:03:59.235Z,3.23
2017-01-24T05:04:25.330Z,3.28
2017-01-24T05:04:51.437Z,3.23
2017-01-24T05:05:17.538Z,3.25
2017-01-24T05:05:43.631Z,3.19
2017-01-24T05:06:09.733Z,3.23
2017-01-24T05:06:35.836Z,3.21
2017-01-24T05:07:01.925Z,3.13
2017-01-24T05:07:28.022Z,3.08
2017-01-24T05:07:54.118Z,3.21
2017-01-24T05:08:20.224Z,3.25
2017-01-24T05:08:46.330Z,3.23
2017-01-24T05:09:12.420Z,3.32
2017-01-24T05:09:38.525Z,3.21
2017-01-24T05:10:04.627Z,3.19
2017-01-24T05:10:30.718Z,3.16
2017-01-24T05:10:56.819Z,3.18
2017-01-24T05:11:22.921Z,3.19
2017-01-24T05:11:49.012Z,3.18
2017-01-24T05:12:15.100Z,3.21
2017-01-24T05:12:41.213Z,3.22
2017-01-24T05:13:07.316Z,3.23
2017-01-24T05:13:33.406Z,3.26
2017-01-24T05:13:59.514Z,3.23
2017-01-24T05:14:25.609Z,3.19
2017-01-24T05:14:51.700Z,3.19
2017-01-24T05:15:17.841Z,3.29
2017-01-24T05:15:43.950Z,3.19
2017-01-24T05:16:10.036Z,3.21
2017-01-24T05:16:36.135Z,3.18
2017-01-24T05:17:02.239Z,3.18
2017-01-24T05:17:28.336Z,3.18
2017-01-24T05:17:54.434Z,3.18
2017-01-24T05:18:20.547Z,3.13
2017-01-24T05:18:46.636Z,3.08
2017-01-24T05:19:12.746Z,3.07
2017-01-24T05:19:38.837Z,3.05
2017-01-24T05:20:04.943Z,3.04
2017-01-24T05:20:31.046Z,3.04
2017-01-24T05:20:57.136Z,3.14
2017-01-24T05:21:23.238Z,3.18
2017-01-24T05:21:49.345Z,3.26
2017-01-24T05:22:15.438Z,3.29
2017-01-24T05:22:41.536Z,3.22
2017-01-24T05:23:07.644Z,3.26
2017-01-24T05:23:33.738Z,3.32
2017-01-24T05:23:59.826Z,3.4
2017-01-24T05:24:25.932Z,3.44
2017-01-24T05:24:52.025Z,3.37
2017-01-24T05:25:18.169Z,3.42
2017-01-24T05:25:44.265Z,3.31
2017-01-24T05:26:10.350Z,3.44
2017-01-24T05:26:36.464Z,3.42
2017-01-24T05:27:02.559Z,3.42
2017-01-24T05:27:28.650Z,3.48
2017-01-24T05:27:54.757Z,3.47
2017-01-24T05:28:20.856Z,3.4
2017-01-24T05:28:46.948Z,3.44
2017-01-24T05:29:13.052Z,3.34
2017-01-24T05:29:39.166Z,3.37
2017-01-24T05:30:05.260Z,3.32
2017-01-24T05:30:31.358Z,3.25
2017-01-24T05:30:57.449Z,3.34
2017-01-24T05:31:23.557Z,3.23
2017-01-24T05:31:49.665Z,3.31
2017-01-24T05:32:15.750Z,3.26
2017-01-24T05:32:41.851Z,3.31
2017-01-24T05:33:07.956Z,3.41
2017-01-24T05:33:34.044Z,3.41
2017-01-24T05:34:00.151Z,3.4
2017-01-24T05:34:26.256Z,3.25
2017-01-24T05:34:52.344Z,3.31
2017-01-24T05:35:18.454Z,3.23
2017-01-24T05:35:44.541Z,3.23
2017-01-24T05:36:10.646Z,3.26
2017-01-24T05:36:36.751Z,3.25
2017-01-24T05:37:02.839Z,3.23
2017-01-24T05:37:28.938Z,3.28
2017-01-24T05:37:55.052Z,3.31
2017-01-24T05:38:21.140Z,3.37
2017-01-24T05:38:47.238Z,3.37
2017-01-24T05:39:13.361Z,3.26
2017-01-24T05:39:39.439Z,3.22
2017-01-24T05:40:05.535Z,3.23
2017-01-24T05:40:31.644Z,3.18
2017-01-24T05:40:57.742Z,3.25
2017-01-24T05:41:23.849Z,3.26
2017-01-24T05:41:49.943Z,3.18
2017-01-24T05:42:16.045Z,3.26
2017-01-24T05:42:42.148Z,3.26
2017-01-24T05:43:08.243Z,3.25
2017-01-24T05:43:34.327Z,3.21
2017-01-24T05:44:00.441Z,3.22
2017-01-24T05:44:26.536Z,3.22
2017-01-24T05:44:52.627Z,3.32
2017-01-24T05:45:18.730Z,3.37
2017-01-24T05:45:44.832Z,3.31
2017-01-24T05:46:10.922Z,3.31
2017-01-24T05:46:37.032Z,3.22
2017-01-24T05:47:03.123Z,3.25
2017-01-24T05:47:29.228Z,3.36
2017-01-24T05:47:55.326Z,3.37
2017-01-24T05:48:21.414Z,3.31